Time;durP1;ratioP1;P1;durP2;ratioP2;P2;SDS_P1;SDS_P2;PMS_P1;PMS_P2;Temp;Humidity;BMP_temperature;BMP_pressure;BME280_temperature;BME280_humidity;BME280_pressure;Samples;Min_cycle;Max_cycle;Signal;HPM_P1;HPM_P2
2023/11/27 00:00:56;;;;;;;3.47;2.13;;;;;;;;;;6326201;27;20545;-73
2023/11/27 00:03:58;;;;;;;3.45;2.33;;;;;;;;;;6343433;27;20189;-73
2023/11/27 00:07:00;;;;;;;2.78;2.15;;;;;;;;;;6318314;28;20044;-73
2023/11/27 00:10:02;;;;;;;4.03;2.05;;;;;;;;;;6317927;28;20134;-73
2023/11/27 00:13:05;;;;;;;6.80;6.25;;;;;;;;;;6342666;27;20437;-73
2023/11/27 00:16:07;;;;;;;5.20;2.92;;;;;;;;;;6326861;28;20051;-73
2023/11/27 00:19:10;;;;;;;4.50;2.70;;;;;;;;;;6335724;28;20036;-73
2023/11/27 00:22:13;;;;;;;2.90;2.20;;;;;;;;;;6342506;28;20043;-72
2023/11/27 00:25:15;;;;;;;2.35;1.67;;;;;;;;;;6337918;27;20047;-72
2023/11/27 00:28:18;;;;;;;3.75;2.35;;;;;;;;;;6350643;28;20044;-72
2023/11/27 00:31:20;;;;;;;2.42;2.05;;;;;;;;;;6338420;28;20061;-73
2023/11/27 00:34:23;;;;;;;3.10;2.88;;;;;;;;;;6345292;28;20043;-73
2023/11/27 00:37:25;;;;;;;6.80;6.18;;;;;;;;;;6300967;28;20461;-72
2023/11/27 00:40:27;;;;;;;3.95;3.13;;;;;;;;;;6337446;28;20066;-73
2023/11/27 00:43:29;;;;;;;3.40;2.88;;;;;;;;;;6314332;28;20078;-72
2023/11/27 00:46:31;;;;;;;3.05;2.72;;;;;;;;;;6316986;28;20055;-73
2023/11/27 00:49:33;;;;;;;2.45;1.50;;;;;;;;;;6328794;28;20073;-73
2023/11/27 00:52:35;;;;;;;3.28;2.72;;;;;;;;;;6339419;28;20040;-72
2023/11/27 00:55:37;;;;;;;3.17;2.40;;;;;;;;;;6334552;28;20448;-72
2023/11/27 00:58:40;;;;;;;3.67;2.78;;;;;;;;;;6341774;27;20078;-71
2023/11/27 01:01:42;;;;;;;3.22;1.77;;;;;;;;;;6339584;28;20042;-71
2023/11/27 01:04:44;;;;;;;2.85;2.55;;;;;;;;;;6339980;28;20134;-72
2023/11/27 01:07:46;;;;;;;3.38;3.08;;;;;;;;;;6312046;27;20043;-72
2023/11/27 01:10:50;;;;;;;3.92;3.58;;;;;;;;;;6337517;28;20130;-72
2023/11/27 01:13:52;;;;;;;3.33;2.63;;;;;;;;;;6321523;28;20051;-72
2023/11/27 01:16:53;;;;;;;3.92;3.22;;;;;;;;;;6338761;28;20043;-72
2023/11/27 01:19:56;;;;;;;7.07;6.57;;;;;;;;;;6338683;28;20503;-73
2023/11/27 01:22:58;;;;;;;2.38;1.95;;;;;;;;;;6341269;27;20035;-72
2023/11/27 01:26:01;;;;;;;3.70;2.78;;;;;;;;;;6297817;28;20070;-72
2023/11/27 01:29:03;;;;;;;4.35;2.67;;;;;;;;;;6349232;27;20032;-72
2023/11/27 01:32:05;;;;;;;2.88;2.30;;;;;;;;;;6341127;27;20104;-73
2023/11/27 01:35:07;;;;;;;2.83;2.53;;;;;;;;;;6338525;28;20050;-73
2023/11/27 01:38:09;;;;;;;3.00;2.67;;;;;;;;;;6321057;28;20047;-73
2023/11/27 01:41:13;;;;;;;3.50;3.15;;;;;;;;;;6352190;27;20040;-73
2023/11/27 01:44:15;;;;;;;3.55;2.78;;;;;;;;;;6341873;27;20044;-72
2023/11/27 01:47:18;;;;;;;3.83;3.05;;;;;;;;;;6338216;28;20048;-73
2023/11/27 01:50:20;;;;;;;2.88;1.85;;;;;;;;;;6330416;27;20124;-72
2023/11/27 01:53:23;;;;;;;2.92;2.47;;;;;;;;;;6288540;27;20482;-73
2023/11/27 01:56:26;;;;;;;2.30;1.85;;;;;;;;;;6343576;27;20107;-73
2023/11/27 01:59:29;;;;;;;3.92;3.53;;;;;;;;;;6324030;27;20039;-72
2023/11/27 02:02:31;;;;;;;2.72;2.45;;;;;;;;;;6339485;27;20051;-73
2023/11/27 02:05:33;;;;;;;3.35;2.88;;;;;;;;;;6330828;27;20050;-74
2023/11/27 02:08:36;;;;;;;4.03;2.88;;;;;;;;;;6344281;27;20122;-72
2023/11/27 02:11:49;;;;;;;4.80;2.85;;;;;;;;;;6336627;28;20043;-73
2023/11/27 02:14:52;;;;;;;5.28;2.83;;;;;;;;;;6321429;27;20039;-72
2023/11/27 02:17:54;;;;;;;3.53;3.15;;;;;;;;;;6340813;27;20039;-72
2023/11/27 02:21:00;;;;;;;4.20;2.85;;;;;;;;;;6338626;27;20035;-72
2023/11/27 02:24:04;;;;;;;3.05;2.17;;;;;;;;;;6329812;27;20131;-73
2023/11/27 02:27:06;;;;;;;2.22;1.83;;;;;;;;;;6336467;28;20047;-73
2023/11/27 02:30:09;;;;;;;4.75;2.20;;;;;;;;;;6303081;28;20082;-73
2023/11/27 02:33:11;;;;;;;4.95;4.43;;;;;;;;;;6324116;28;20080;-73
2023/11/27 02:36:13;;;;;;;4.30;3.00;;;;;;;;;;6340613;27;20050;-73
2023/11/27 02:39:15;;;;;;;3.17;2.53;;;;;;;;;;6341297;27;20052;-73
2023/11/27 02:42:17;;;;;;;6.05;5.28;;;;;;;;;;6339535;27;20691;-72
2023/11/27 02:45:19;;;;;;;2.83;2.55;;;;;;;;;;6336253;28;20051;-73
2023/11/27 02:48:22;;;;;;;3.42;2.83;;;;;;;;;;6332922;27;20204;-73
2023/11/27 02:51:24;;;;;;;3.05;2.65;;;;;;;;;;6337742;27;20052;-72
2023/11/27 02:54:26;;;;;;;3.33;1.92;;;;;;;;;;6338590;27;20043;-73
2023/11/27 02:57:28;;;;;;;2.38;1.77;;;;;;;;;;6322281;27;20548;-73
2023/11/27 03:00:30;;;;;;;6.38;5.97;;;;;;;;;;6337651;28;20842;-72
2023/11/27 03:03:32;;;;;;;2.38;2.08;;;;;;;;;;6307619;27;20117;-72
2023/11/27 03:06:34;;;;;;;2.22;2.03;;;;;;;;;;6336502;28;20081;-73
2023/11/27 03:09:37;;;;;;;2.75;1.50;;;;;;;;;;6339953;27;20039;-73
2023/11/27 03:12:39;;;;;;;6.18;5.60;;;;;;;;;;6335766;28;20796;-73
2023/11/27 03:15:42;;;;;;;4.22;3.67;;;;;;;;;;6319473;28;20127;-73
2023/11/27 03:18:43;;;;;;;13.20;4.32;;;;;;;;;;6333517;27;20063;-72
2023/11/27 03:21:46;;;;;;;7.30;4.05;;;;;;;;;;6321543;27;20055;-75
2023/11/27 03:24:49;;;;;;;4.40;2.42;;;;;;;;;;6340404;28;20047;-73
2023/11/27 03:27:51;;;;;;;8.18;3.90;;;;;;;;;;6330783;28;20058;-73
2023/11/27 03:30:54;;;;;;;5.72;3.17;;;;;;;;;;6338480;28;20046;-72
2023/11/27 03:33:57;;;;;;;4.20;2.25;;;;;;;;;;6338296;27;20069;-73
2023/11/27 03:36:59;;;;;;;5.72;2.78;;;;;;;;;;6319021;28;20043;-73
2023/11/27 03:40:02;;;;;;;6.30;3.55;;;;;;;;;;6301781;27;20537;-73
2023/11/27 03:43:05;;;;;;;5.88;4.10;;;;;;;;;;6318054;28;20077;-73
2023/11/27 03:46:07;;;;;;;4.55;4.10;;;;;;;;;;6337457;27;20044;-73
2023/11/27 03:49:10;;;;;;;5.03;3.88;;;;;;;;;;6334991;28;20158;-73
2023/11/27 03:52:12;;;;;;;6.03;3.17;;;;;;;;;;6336506;28;20039;-72
2023/11/27 03:55:14;;;;;;;4.57;2.28;;;;;;;;;;6321287;27;20062;-72
2023/11/27 03:58:16;;;;;;;2.65;1.88;;;;;;;;;;6317979;28;20041;-73
2023/11/27 04:01:18;;;;;;;3.35;2.47;;;;;;;;;;6320984;28;20173;-73
2023/11/27 04:04:20;;;;;;;2.85;1.90;;;;;;;;;;6340928;27;20048;-73
2023/11/27 04:07:22;;;;;;;4.05;2.25;;;;;;;;;;6338015;27;20111;-73
2023/11/27 04:10:25;;;;;;;3.10;2.13;;;;;;;;;;6339295;28;20538;-72
2023/11/27 04:13:27;;;;;;;2.45;1.50;;;;;;;;;;6327695;27;20051;-74
2023/11/27 04:16:29;;;;;;;6.95;5.05;;;;;;;;;;6341800;27;20738;-73
2023/11/27 04:19:32;;;;;;;3.10;2.13;;;;;;;;;;6334855;28;20874;-73
2023/11/27 04:22:34;;;;;;;4.80;3.65;;;;;;;;;;6344364;27;20873;-72
2023/11/27 04:25:36;;;;;;;8.10;4.60;;;;;;;;;;6345112;27;20621;-73
2023/11/27 04:28:41;;;;;;;4.50;3.33;;;;;;;;;;6339891;28;20039;-74
2023/11/27 04:31:44;;;;;;;6.35;4.93;;;;;;;;;;6338292;27;20173;-73
2023/11/27 04:34:46;;;;;;;3.70;2.60;;;;;;;;;;6334306;27;20502;-73
2023/11/27 04:37:49;;;;;;;5.82;4.57;;;;;;;;;;6343785;27;20089;-73
2023/11/27 04:40:51;;;;;;;5.35;3.10;;;;;;;;;;6351287;27;20039;-73
2023/11/27 04:43:53;;;;;;;4.22;3.63;;;;;;;;;;6341877;27;20047;-73
2023/11/27 04:46:55;;;;;;;4.45;2.95;;;;;;;;;;6336057;27;20039;-73
2023/11/27 04:49:57;;;;;;;5.22;3.90;;;;;;;;;;6340856;27;20123;-73
2023/11/27 04:52:59;;;;;;;5.63;4.68;;;;;;;;;;6355397;27;20057;-73
2023/11/27 04:56:01;;;;;;;4.93;4.22;;;;;;;;;;6342500;27;20115;-73
2023/11/27 04:59:03;;;;;;;4.38;3.78;;;;;;;;;;6305429;28;20039;-73
2023/11/27 05:02:05;;;;;;;3.03;2.47;;;;;;;;;;6303909;27;20043;-73
2023/11/27 05:05:07;;;;;;;3.45;2.38;;;;;;;;;;6312257;28;20055;-73
2023/11/27 05:08:10;;;;;;;5.28;2.72;;;;;;;;;;6329234;27;20047;-72
2023/11/27 05:11:19;;;;;;;3.78;3.38;;;;;;;;;;6351813;27;20053;-72
2023/11/27 05:14:25;;;;;;;3.08;2.75;;;;;;;;;;6354094;27;20039;-73
2023/11/27 05:17:27;;;;;;;5.68;3.63;;;;;;;;;;6347255;27;20051;-73
2023/11/27 05:20:29;;;;;;;3.75;3.30;;;;;;;;;;6320285;28;20719;-73
2023/11/27 05:23:32;;;;;;;5.65;3.85;;;;;;;;;;6330725;28;20124;-73
2023/11/27 05:26:34;;;;;;;3.58;2.45;;;;;;;;;;6322407;27;20119;-74
2023/11/27 05:29:37;;;;;;;5.25;3.60;;;;;;;;;;6323359;27;20043;-73
2023/11/27 05:32:39;;;;;;;9.18;8.63;;;;;;;;;;6347865;27;20789;-74
2023/11/27 05:35:41;;;;;;;6.07;3.65;;;;;;;;;;6324544;28;20051;-74
2023/11/27 05:38:43;;;;;;;5.40;3.22;;;;;;;;;;6340752;27;20043;-74
2023/11/27 05:41:49;;;;;;;4.65;3.22;;;;;;;;;;6340137;27;20035;-73
2023/11/27 05:44:51;;;;;;;5.03;4.05;;;;;;;;;;6288479;28;20283;-75
2023/11/27 05:47:54;;;;;;;5.95;5.53;;;;;;;;;;6308658;27;20415;-74
2023/11/27 05:50:56;;;;;;;5.82;4.22;;;;;;;;;;6313755;28;20054;-73
2023/11/27 05:53:58;;;;;;;5.43;3.28;;;;;;;;;;6324535;27;20131;-73
2023/11/27 05:57:02;;;;;;;4.20;3.80;;;;;;;;;;6342755;27;20139;-74
2023/11/27 06:00:07;;;;;;;3.22;2.63;;;;;;;;;;6336844;28;20031;-74
2023/11/27 06:03:14;;;;;;;6.10;5.63;;;;;;;;;;6338336;27;20403;-74
2023/11/27 06:06:17;;;;;;;4.90;3.33;;;;;;;;;;6322642;28;20039;-74
2023/11/27 06:09:22;;;;;;;5.95;2.88;;;;;;;;;;6319228;27;20526;-75
2023/11/27 06:12:25;;;;;;;8.23;4.07;;;;;;;;;;6348796;27;20051;-75
2023/11/27 06:15:27;;;;;;;11.80;7.80;;;;;;;;;;6337255;27;20058;-75
2023/11/27 06:18:29;;;;;;;14.20;11.55;;;;;;;;;;6349075;27;20046;-74
2023/11/27 06:21:31;;;;;;;9.73;5.78;;;;;;;;;;6343247;27;20047;-74
2023/11/27 06:24:34;;;;;;;9.68;5.60;;;;;;;;;;6336897;28;20043;-74
2023/11/27 06:27:36;;;;;;;6.47;4.88;;;;;;;;;;6328362;27;20081;-74
2023/11/27 06:30:39;;;;;;;6.43;4.93;;;;;;;;;;6315637;27;20039;-75
2023/11/27 06:33:41;;;;;;;12.13;10.93;;;;;;;;;;6336090;27;20559;-74
2023/11/27 06:36:44;;;;;;;6.70;5.65;;;;;;;;;;6355839;27;20062;-74
2023/11/27 06:39:46;;;;;;;15.27;6.20;;;;;;;;;;6331762;27;20127;-74
2023/11/27 06:42:49;;;;;;;6.35;4.60;;;;;;;;;;6336542;27;20042;-74
2023/11/27 06:45:52;;;;;;;6.82;4.95;;;;;;;;;;6341241;27;20046;-76
2023/11/27 06:48:54;;;;;;;8.98;8.13;;;;;;;;;;6339662;27;20039;-74
2023/11/27 06:51:57;;;;;;;7.70;6.18;;;;;;;;;;6316082;28;20937;-74
2023/11/27 06:54:59;;;;;;;16.25;12.95;;;;;;;;;;6333480;27;20032;-74
2023/11/27 06:58:01;;;;;;;8.85;5.45;;;;;;;;;;6355343;27;20046;-73
2023/11/27 07:01:12;;;;;;;4.50;4.10;;;;;;;;;;6332111;28;20808;-74
2023/11/27 07:04:14;;;;;;;6.97;6.38;;;;;;;;;;6330007;27;20047;-73
2023/11/27 07:07:17;;;;;;;5.60;3.92;;;;;;;;;;6319309;28;20055;-72
2023/11/27 07:10:19;;;;;;;15.75;7.03;;;;;;;;;;6328746;27;20083;-73
2023/11/27 07:13:23;;;;;;;11.32;5.43;;;;;;;;;;6347287;27;20043;-73
2023/11/27 07:16:27;;;;;;;8.90;4.97;;;;;;;;;;6339920;27;20829;-74
2023/11/27 07:19:29;;;;;;;12.55;6.57;;;;;;;;;;6344669;27;20040;-75
2023/11/27 07:22:31;;;;;;;20.42;9.80;;;;;;;;;;6336073;27;20140;-75
2023/11/27 07:25:33;;;;;;;24.70;10.82;;;;;;;;;;6322875;28;20048;-73
2023/11/27 07:28:38;;;;;;;5.57;3.72;;;;;;;;;;6318917;27;20818;-75
2023/11/27 07:31:40;;;;;;;10.45;9.70;;;;;;;;;;6339531;27;20500;-74
2023/11/27 07:34:42;;;;;;;6.90;5.13;;;;;;;;;;6334929;27;20104;-74
2023/11/27 07:37:44;;;;;;;6.95;4.22;;;;;;;;;;6318231;27;20042;-75
2023/11/27 07:40:46;;;;;;;10.55;9.57;;;;;;;;;;6341810;27;20081;-75
2023/11/27 07:43:49;;;;;;;7.28;6.43;;;;;;;;;;6299597;28;20044;-74
2023/11/27 07:46:51;;;;;;;10.35;7.00;;;;;;;;;;6318954;27;20051;-74
2023/11/27 07:49:54;;;;;;;4.95;3.50;;;;;;;;;;6344537;27;20031;-75
2023/11/27 07:52:56;;;;;;;4.88;4.47;;;;;;;;;;6342856;27;20043;-74
2023/11/27 07:55:59;;;;;;;6.85;6.15;;;;;;;;;;6346798;27;20055;-74
2023/11/27 07:59:01;;;;;;;6.30;5.78;;;;;;;;;;6334854;28;20040;-74
2023/11/27 08:02:03;;;;;;;6.03;3.35;;;;;;;;;;6334562;28;20032;-74
2023/11/27 08:05:08;;;;;;;5.28;3.75;;;;;;;;;;6330652;27;20053;-74
2023/11/27 08:08:11;;;;;;;4.47;3.65;;;;;;;;;;6340040;27;20047;-74
2023/11/27 08:11:13;;;;;;;4.70;3.88;;;;;;;;;;6339568;27;20071;-74
2023/11/27 08:14:17;;;;;;;6.47;3.13;;;;;;;;;;6346179;28;20047;-75
2023/11/27 08:17:19;;;;;;;5.47;3.30;;;;;;;;;;6340227;27;20040;-75
2023/11/27 08:20:28;;;;;;;5.00;3.33;;;;;;;;;;6335122;28;20039;-75
2023/11/27 08:23:30;;;;;;;5.97;3.55;;;;;;;;;;6330848;28;20048;-75
2023/11/27 08:26:39;;;;;;;5.28;4.20;;;;;;;;;;6333494;28;20039;-74
2023/11/27 08:29:42;;;;;;;5.80;3.42;;;;;;;;;;6337664;28;20044;-75
2023/11/27 08:32:49;;;;;;;4.47;3.33;;;;;;;;;;6334152;28;20039;-75
2023/11/27 08:35:52;;;;;;;4.43;2.97;;;;;;;;;;6329702;28;20798;-75
2023/11/27 08:38:55;;;;;;;7.38;4.25;;;;;;;;;;6307238;28;20631;-75
2023/11/27 08:41:57;;;;;;;4.05;2.28;;;;;;;;;;6336448;28;20073;-75
2023/11/27 08:45:10;;;;;;;4.90;3.05;;;;;;;;;;6329945;28;20043;-75
2023/11/27 08:48:13;;;;;;;5.80;2.63;;;;;;;;;;6331266;28;20136;-75
2023/11/27 08:51:16;;;;;;;5.78;4.53;;;;;;;;;;6330970;28;20035;-75
2023/11/27 08:54:18;;;;;;;3.08;2.50;;;;;;;;;;6341862;27;20047;-75
2023/11/27 08:57:20;;;;;;;5.13;2.88;;;;;;;;;;6346289;28;20048;-75
2023/11/27 09:00:22;;;;;;;3.88;3.25;;;;;;;;;;6337719;28;20459;-75
2023/11/27 09:03:24;;;;;;;4.63;3.05;;;;;;;;;;6332730;28;20039;-75
2023/11/27 09:06:26;;;;;;;4.85;3.03;;;;;;;;;;6342614;28;20512;-76
2023/11/27 09:09:29;;;;;;;7.53;3.03;;;;;;;;;;6339665;28;20532;-76
2023/11/27 09:12:31;;;;;;;4.55;3.22;;;;;;;;;;6338551;28;20815;-76
2023/11/27 09:15:36;;;;;;;5.15;3.45;;;;;;;;;;6322214;28;20044;-76
2023/11/27 09:18:38;;;;;;;7.20;3.72;;;;;;;;;;6337305;28;20040;-75
2023/11/27 09:21:40;;;;;;;10.48;4.82;;;;;;;;;;6330323;27;20051;-76
2023/11/27 09:24:42;;;;;;;6.25;3.35;;;;;;;;;;6330488;28;20054;-77
2023/11/27 09:27:46;;;;;;;8.05;4.80;;;;;;;;;;6328905;28;20048;-77
2023/11/27 09:30:49;;;;;;;5.85;2.33;;;;;;;;;;6322961;28;20070;-77
2023/11/27 09:33:51;;;;;;;5.18;4.22;;;;;;;;;;6363487;27;20046;-77
2023/11/27 09:36:54;;;;;;;7.82;3.83;;;;;;;;;;6329364;27;20039;-77
2023/11/27 09:40:12;;;;;;;7.60;3.95;;;;;;;;;;6311423;28;20069;-77
2023/11/27 09:43:15;;;;;;;4.88;3.67;;;;;;;;;;6293898;28;20051;-77
2023/11/27 09:46:19;;;;;;;10.00;9.00;;;;;;;;;;6326804;28;20501;-77
2023/11/27 09:49:24;;;;;;;7.43;5.93;;;;;;;;;;6302641;27;20478;-77
2023/11/27 09:52:32;;;;;;;7.10;6.45;;;;;;;;;;6328213;28;20036;-77
2023/11/27 09:55:34;;;;;;;5.22;3.80;;;;;;;;;;6298227;28;21571;-77
2023/11/27 09:58:42;;;;;;;6.00;4.32;;;;;;;;;;6331729;28;20059;-77
2023/11/27 10:01:46;;;;;;;8.00;7.35;;;;;;;;;;6339651;27;20515;-76
2023/11/27 10:04:49;;;;;;;4.32;2.85;;;;;;;;;;6329301;28;20071;-76
2023/11/27 10:07:52;;;;;;;4.18;2.55;;;;;;;;;;6300673;27;20566;-76
2023/11/27 10:10:56;;;;;;;6.90;3.50;;;;;;;;;;6329038;27;20554;-77
2023/11/27 10:14:04;;;;;;;4.85;2.92;;;;;;;;;;6327938;28;20052;-78
2023/11/27 10:17:27;;;;;;;3.92;3.20;;;;;;;;;;6322328;27;20078;-76
2023/11/27 10:20:29;;;;;;;5.30;3.17;;;;;;;;;;6322794;27;20042;-77
2023/11/27 10:23:31;;;;;;;2.72;1.50;;;;;;;;;;6343867;27;20040;-77
2023/11/27 10:26:37;;;;;;;3.67;2.67;;;;;;;;;;6325087;28;20788;-77
2023/11/27 10:29:39;;;;;;;;;;;;;;;;;;6326386;27;20501;-77
2023/11/27 10:32:43;;;;;;;4.03;2.15;;;;;;;;;;6322583;28;20472;-76
2023/11/27 10:35:46;;;;;;;4.40;2.38;;;;;;;;;;6333945;27;20035;-76
2023/11/27 10:39:04;;;;;;;5.97;5.47;;;;;;;;;;6327019;27;20059;-75
2023/11/27 10:42:11;;;;;;;;;;;;;;;;;;6349831;27;20047;-75
2023/11/27 10:45:19;;;;;;;3.35;2.28;;;;;;;;;;6367908;27;19927;-75
2023/11/27 10:48:24;;;;;;;9.93;5.50;;;;;;;;;;6353980;27;20047;-76
2023/11/27 10:51:45;;;;;;;5.75;3.40;;;;;;;;;;6346638;27;20040;-75
2023/11/27 10:54:48;;;;;;;5.88;5.38;;;;;;;;;;6333568;27;20162;-75
2023/11/27 10:57:51;;;;;;;6.82;6.22;;;;;;;;;;6318846;27;20067;-76
2023/11/27 11:00:57;;;;;;;5.65;3.65;;;;;;;;;;6346119;27;20039;-77
2023/11/27 11:04:02;;;;;;;;;;;;;;;;;;6337265;28;20043;-76
2023/11/27 11:07:07;;;;;;;8.75;5.07;;;;;;;;;;6323455;28;19976;-77
2023/11/27 11:10:11;;;;;;;4.15;2.85;;;;;;;;;;6328880;28;20059;-77
2023/11/27 11:13:16;;;;;;;11.63;9.38;;;;;;;;;;6336995;28;20055;-78
2023/11/27 11:16:42;;;;;;;6.72;3.63;;;;;;;;;;6307487;28;20048;-77
2023/11/27 11:20:03;;;;;;;6.88;4.90;;;;;;;;;;6330976;28;20044;-77
2023/11/27 11:23:27;;;;;;;5.22;2.47;;;;;;;;;;6348019;27;20043;-77
2023/11/27 11:26:54;;;;;;;9.43;7.07;;;;;;;;;;6324496;28;20055;-77
2023/11/27 11:29:58;;;;;;;4.90;2.53;;;;;;;;;;6333360;27;20040;-76
2023/11/27 11:33:05;;;;;;;5.95;4.68;;;;;;;;;;6338212;27;20054;-75
2023/11/27 11:36:12;;;;;;;8.18;7.57;;;;;;;;;;6315725;27;21299;-76
2023/11/27 11:39:18;;;;;;;6.45;5.05;;;;;;;;;;6335892;28;20849;-77
2023/11/27 11:42:32;;;;;;;4.90;2.90;;;;;;;;;;6342564;27;20051;-76
2023/11/27 11:45:39;;;;;;;4.85;4.50;;;;;;;;;;6351734;28;20765;-78
2023/11/27 11:48:43;;;;;;;4.70;2.75;;;;;;;;;;6333984;27;20079;-76
2023/11/27 11:52:08;;;;;;;4.47;2.17;;;;;;;;;;6322940;27;20043;-77
2023/11/27 11:55:15;;;;;;;3.65;2.25;;;;;;;;;;6335482;28;20055;-77
2023/11/27 11:58:17;;;;;;;5.47;5.07;;;;;;;;;;6333953;28;20540;-76
2023/11/27 12:01:20;;;;;;;3.30;2.42;;;;;;;;;;6322949;27;20375;-75
2023/11/27 12:04:22;;;;;;;3.97;2.65;;;;;;;;;;6307627;28;20193;-77
2023/11/27 12:07:25;;;;;;;4.85;2.33;;;;;;;;;;6323896;28;20047;-77
2023/11/27 12:10:31;;;;;;;6.28;5.68;;;;;;;;;;6322659;28;20043;-77
2023/11/27 12:13:36;;;;;;;4.35;2.13;;;;;;;;;;6326783;28;20040;-75
2023/11/27 12:16:39;;;;;;;;;;;;;;;;;;6333245;28;20084;-77
2023/11/27 12:19:47;;;;;;;5.05;4.57;;;;;;;;;;6324047;28;20672;-76
2023/11/27 12:22:54;;;;;;;4.97;2.53;;;;;;;;;;6326982;28;20429;-76
2023/11/27 12:25:57;;;;;;;5.68;3.35;;;;;;;;;;6323310;28;20637;-75
2023/11/27 12:29:01;;;;;;;5.90;2.55;;;;;;;;;;6309714;28;20096;-75
2023/11/27 12:32:04;;;;;;;11.07;7.40;;;;;;;;;;6324161;28;20052;-75
2023/11/27 12:35:14;;;;;;;6.03;2.72;;;;;;;;;;6322054;28;20075;-76
2023/11/27 12:38:16;;;;;;;5.05;3.22;;;;;;;;;;6314373;28;20576;-76
2023/11/27 12:41:32;;;;;;;5.95;4.45;;;;;;;;;;6325272;28;20139;-74
2023/11/27 12:44:37;;;;;;;10.43;6.28;;;;;;;;;;6330236;28;20077;-76
2023/11/27 12:47:47;;;;;;;5.43;2.75;;;;;;;;;;6325501;28;20056;-75
2023/11/27 12:50:54;;;;;;;6.38;2.67;;;;;;;;;;6319224;28;20063;-75
2023/11/27 12:53:59;;;;;;;6.47;5.63;;;;;;;;;;6327696;28;20093;-75
2023/11/27 12:57:05;;;;;;;8.20;6.32;;;;;;;;;;6325036;28;20047;-76
2023/11/27 13:00:13;;;;;;;;;;;;;;;;;;6311144;28;20051;-75
2023/11/27 13:03:22;;;;;;;7.50;2.67;;;;;;;;;;6355476;27;20008;-75
2023/11/27 13:06:27;;;;;;;5.90;3.05;;;;;;;;;;6325411;28;20882;-75
2023/11/27 13:09:29;;;;;;;9.30;8.23;;;;;;;;;;6336570;27;20046;-77
2023/11/27 13:12:32;;;;;;;8.45;7.78;;;;;;;;;;6323525;27;20040;-74
2023/11/27 13:15:34;;;;;;;4.25;2.05;;;;;;;;;;6322836;27;20039;-75
2023/11/27 13:18:37;;;;;;;5.78;2.58;;;;;;;;;;6324221;28;20055;-75
2023/11/27 13:21:39;;;;;;;5.85;3.05;;;;;;;;;;6340836;28;20120;-75
2023/11/27 13:24:43;;;;;;;6.47;3.47;;;;;;;;;;6338162;27;20840;-75
2023/11/27 13:27:46;;;;;;;7.63;6.18;;;;;;;;;;6316033;28;20074;-76
2023/11/27 13:30:55;;;;;;;10.52;6.18;;;;;;;;;;6347960;27;20524;-75
2023/11/27 13:33:58;;;;;;;8.30;7.43;;;;;;;;;;6338766;27;20050;-74
2023/11/27 13:37:08;;;;;;;7.80;6.95;;;;;;;;;;6336014;27;20040;-73
2023/11/27 13:40:11;;;;;;;;;;;;;;;;;;6326209;28;20036;-74
2023/11/27 13:43:14;;;;;;;6.30;5.80;;;;;;;;;;6322798;28;20047;-75
2023/11/27 13:46:16;;;;;;;7.35;6.63;;;;;;;;;;6313782;27;20043;-74
2023/11/27 13:49:19;;;;;;;13.40;6.43;;;;;;;;;;6326059;27;20073;-73
2023/11/27 13:52:28;;;;;;;25.52;11.98;;;;;;;;;;6341376;27;20132;-76
2023/11/27 13:55:35;;;;;;;8.18;6.07;;;;;;;;;;6322534;28;20136;-74
2023/11/27 13:58:39;;;;;;;6.28;5.78;;;;;;;;;;6311304;28;20055;-74
2023/11/27 14:01:41;;;;;;;13.10;9.70;;;;;;;;;;6330258;28;21079;-75
2023/11/27 14:05:05;;;;;;;19.30;11.88;;;;;;;;;;6299477;28;20043;-74
2023/11/27 14:08:15;;;;;;;11.98;9.57;;;;;;;;;;6324217;28;20040;-74
2023/11/27 14:11:29;;;;;;;12.57;5.13;;;;;;;;;;6320705;28;20051;-74
2023/11/27 14:14:37;;;;;;;13.80;7.72;;;;;;;;;;6297562;28;20575;-73
2023/11/27 14:17:43;;;;;;;22.05;12.15;;;;;;;;;;6341896;27;20109;-74
2023/11/27 14:20:52;;;;;;;18.88;9.13;;;;;;;;;;6313151;28;20032;-75
2023/11/27 14:23:57;;;;;;;17.00;9.13;;;;;;;;;;6333047;28;20089;-75
2023/11/27 14:30:36;;;;;;;15.55;9.43;;;;;;;;;;6231896;28;20818;-76
2023/11/27 14:33:43;;;;;;;51.70;24.95;;;;;;;;;;6320316;27;20836;-76
2023/11/27 14:36:48;;;;;;;35.30;17.77;;;;;;;;;;6330635;28;20139;-75
2023/11/27 14:39:50;;;;;;;73.50;27.60;;;;;;;;;;6338641;27;20051;-74
2023/11/27 14:42:55;;;;;;;32.35;14.65;;;;;;;;;;6319550;28;20082;-74
2023/11/27 14:45:58;;;;;;;29.25;15.30;;;;;;;;;;6343263;27;20054;-75
2023/11/27 14:49:00;;;;;;;10.55;5.47;;;;;;;;;;6333696;28;20043;-74
2023/11/27 14:52:03;;;;;;;9.40;5.65;;;;;;;;;;6331810;28;20039;-74
2023/11/27 14:55:12;;;;;;;5.80;3.25;;;;;;;;;;6333139;27;20074;-74
2023/11/27 14:58:16;;;;;;;4.10;2.17;;;;;;;;;;6332159;27;20047;-74
2023/11/27 15:01:19;;;;;;;7.47;4.82;;;;;;;;;;6322711;28;20059;-75
2023/11/27 15:04:23;;;;;;;7.07;4.40;;;;;;;;;;6351237;27;20095;-75
2023/11/27 15:07:27;;;;;;;6.22;4.28;;;;;;;;;;6324612;28;20121;-74
2023/11/27 15:10:29;;;;;;;5.93;3.95;;;;;;;;;;6324515;28;20036;-75
2023/11/27 15:13:35;;;;;;;11.98;5.90;;;;;;;;;;6334909;28;20044;-74
2023/11/27 15:16:37;;;;;;;7.95;5.88;;;;;;;;;;6339665;27;20545;-74
2023/11/27 15:19:40;;;;;;;19.77;11.93;;;;;;;;;;6333957;28;20051;-76
2023/11/27 15:22:46;;;;;;;10.38;6.35;;;;;;;;;;6325789;27;20557;-75
2023/11/27 15:25:50;;;;;;;;;;;;;;;;;;6327620;28;20124;-74
2023/11/27 15:52:35;;;;;;;42.22;30.30;;;;;;;;;;6355713;27;20743;-79
2023/11/27 15:55:39;;;;;;;29.55;22.33;;;;;;;;;;6332574;28;20038;-79
2023/11/27 15:58:41;;;;;;;28.75;20.63;;;;;;;;;;6344951;28;20052;-79
2023/11/27 16:01:46;;;;;;;16.73;14.98;;;;;;;;;;6349722;28;20043;-78
2023/11/27 16:04:48;;;;;;;19.20;15.98;;;;;;;;;;6331752;28;20058;-79
2023/11/27 16:07:51;;;;;;;13.40;8.25;;;;;;;;;;6325206;28;20040;-79
2023/11/27 16:10:55;;;;;;;15.68;12.98;;;;;;;;;;6325344;28;20031;-76
2023/11/27 16:14:00;;;;;;;13.38;11.95;;;;;;;;;;6325995;28;20123;-77
2023/11/27 16:17:03;;;;;;;16.73;9.95;;;;;;;;;;6336824;28;20045;-79
2023/11/27 16:20:06;;;;;;;15.63;10.38;;;;;;;;;;6330326;28;20092;-80
2023/11/27 16:23:13;;;;;;;18.58;16.58;;;;;;;;;;6294767;28;20054;-79
2023/11/27 16:26:15;;;;;;;16.83;15.20;;;;;;;;;;6340603;27;20043;-79
2023/11/27 16:29:18;;;;;;;26.88;19.88;;;;;;;;;;6338230;28;20064;-79
2023/11/27 16:32:22;;;;;;;24.40;20.20;;;;;;;;;;6340447;28;20047;-76
2023/11/27 16:49:18;;;;;;;18.25;10.82;;;;;;;;;;6292738;27;20632;-76
2023/11/27 16:52:20;;;;;;;10.07;5.95;;;;;;;;;;6248064;28;20052;-76
2023/11/27 16:55:25;;;;;;;40.30;18.35;;;;;;;;;;6241451;28;20132;-76
2023/11/27 16:58:33;;;;;;;59.92;26.67;;;;;;;;;;6209487;28;20104;-76
2023/11/27 17:01:36;;;;;;;47.50;18.65;;;;;;;;;;6239894;28;20057;-77
2023/11/27 17:04:38;;;;;;;118.45;55.28;;;;;;;;;;6248949;28;20049;-76
2023/11/27 17:07:41;;;;;;;52.35;27.33;;;;;;;;;;6250661;28;20080;-76
2023/11/27 17:10:44;;;;;;;23.40;12.88;;;;;;;;;;6248740;28;20417;-76
2023/11/27 17:13:47;;;;;;;42.60;20.30;;;;;;;;;;6247441;28;20057;-73
2023/11/27 17:16:51;;;;;;;15.80;8.20;;;;;;;;;;6245678;28;20048;-73
2023/11/27 17:43:08;;;;;;;6.88;4.10;;;;;;;;;;7595343;22;1851157;-74
2023/11/27 17:46:10;;;;;;;6.25;4.57;;;;;;;;;;7645108;23;20028;-73
2023/11/27 17:49:13;;;;;;;15.40;7.07;;;;;;;;;;7664056;23;20025;-76
2023/11/27 17:53:20;;;;;;;21.52;11.20;;;;;;;;;;7644787;23;20028;-73
2023/11/27 18:01:47;;;;;;;9.95;4.95;;;;;;;;;;7675750;23;19917;-74
2023/11/27 18:10:29;;;;;;;21.08;13.45;;;;;;;;;;7669482;23;20027;-73
2023/11/27 18:13:31;;;;;;;19.40;10.90;;;;;;;;;;7644278;23;20470;-72
2023/11/27 18:16:34;;;;;;;31.45;16.48;;;;;;;;;;7670541;23;20021;-74
2023/11/27 18:19:36;;;;;;;23.27;13.23;;;;;;;;;;7671378;23;20864;-73
2023/11/27 18:22:39;;;;;;;20.42;11.85;;;;;;;;;;7646749;23;20032;-72
2023/11/27 18:25:41;;;;;;;18.17;10.15;;;;;;;;;;7647017;23;20283;-73
2023/11/27 18:28:43;;;;;;;15.57;9.77;;;;;;;;;;7645697;23;20060;-74
2023/11/27 19:01:08;;;;;;;19.52;11.90;;;;;;;;;;6344499;27;20677;-73
2023/11/27 19:04:12;;;;;;;34.58;18.05;;;;;;;;;;6351252;28;20043;-74
2023/11/27 19:07:14;;;;;;;47.88;26.52;;;;;;;;;;6344726;28;20615;-74
2023/11/27 19:10:18;;;;;;;14.13;11.30;;;;;;;;;;6328360;28;20058;-74
2023/11/27 19:13:21;;;;;;;27.40;12.82;;;;;;;;;;6351726;28;20433;-74
2023/11/27 19:16:23;;;;;;;36.05;17.80;;;;;;;;;;6350370;27;20168;-74
2023/11/27 19:19:26;;;;;;;45.25;24.02;;;;;;;;;;6354265;28;20095;-73
2023/11/27 19:22:28;;;;;;;38.47;23.60;;;;;;;;;;6349094;27;20047;-73
2023/11/27 19:25:31;;;;;;;25.95;15.77;;;;;;;;;;6346826;27;20426;-73
2023/11/27 19:28:34;;;;;;;26.90;21.15;;;;;;;;;;6347723;28;20047;-72
2023/11/27 19:31:36;;;;;;;22.48;14.23;;;;;;;;;;6352043;27;20465;-72
2023/11/27 19:34:38;;;;;;;29.65;21.25;;;;;;;;;;6349734;27;20074;-72
2023/11/27 19:37:41;;;;;;;26.08;18.33;;;;;;;;;;6349754;27;20042;-72
2023/11/27 19:40:44;;;;;;;34.30;21.63;;;;;;;;;;6349178;27;20036;-72
2023/11/27 19:43:46;;;;;;;44.70;22.73;;;;;;;;;;6351722;27;20035;-73
2023/11/27 19:46:48;;;;;;;75.97;34.67;;;;;;;;;;6355685;27;20048;-72
2023/11/27 19:49:55;;;;;;;56.65;31.02;;;;;;;;;;6347688;27;20115;-73
2023/11/27 19:52:57;;;;;;;61.38;32.92;;;;;;;;;;6344215;28;20035;-72
2023/11/27 19:56:00;;;;;;;45.22;25.25;;;;;;;;;;6346128;28;20043;-75
2023/11/27 19:59:02;;;;;;;42.83;24.92;;;;;;;;;;6353573;27;20043;-72
2023/11/27 20:02:04;;;;;;;39.22;24.65;;;;;;;;;;6336521;27;20052;-72